Time;durP1;ratioP1;P1;durP2;ratioP2;P2;SDS_P1;SDS_P2;PMS_P1;PMS_P2;Temp;Humidity;BMP_temperature;BMP_pressure;BME280_temperature;BME280_humidity;BME280_pressure;Samples;Min_cycle;Max_cycle;Signal;HPM_P1;HPM_P2
2022/09/25 00:01:25;;;;;;;7.03;1.50;;;17.10;94.70;;;;;;5032875;28;20025;-73
2022/09/25 00:03:50;;;;;;;5.90;1.15;;;17.00;94.80;;;;;;5032837;28;20018;-73
2022/09/25 00:06:20;;;;;;;7.70;2.13;;;17.10;94.60;;;;;;5033321;28;20027;-73
2022/09/25 00:08:46;;;;;;;6.20;1.45;;;17.00;94.70;;;;;;5032764;28;20021;-72
2022/09/25 00:11:23;;;;;;;9.88;2.10;;;16.90;94.60;;;;;;5032767;28;20108;-72
2022/09/25 00:13:49;;;;;;;5.72;1.40;;;16.90;94.70;;;;;;5032317;28;20487;-72
2022/09/25 00:16:19;;;;;;;7.07;1.05;;;16.90;94.60;;;;;;5032813;28;20125;-72
2022/09/25 00:21:31;;;;;;;5.90;1.40;;;16.90;94.70;;;;;;5032583;28;20033;-72
2022/09/25 00:24:01;;;;;;;8.38;1.75;;;16.90;94.90;;;;;;5032391;28;20026;-71
2022/09/25 00:26:30;;;;;;;5.68;1.67;;;16.80;95.00;;;;;;5031661;28;20444;-71
2022/09/25 00:28:56;;;;;;;7.10;1.60;;;16.80;95.00;;;;;;5032430;28;20088;-73
2022/09/25 00:31:23;;;;;;;6.10;1.05;;;16.80;94.90;;;;;;5032912;28;20485;-73
2022/09/25 00:33:55;;;;;;;7.00;1.48;;;16.80;95.00;;;;;;5031100;28;20060;-73
2022/09/25 00:36:20;;;;;;;7.35;1.48;;;16.70;95.00;;;;;;5032365;28;20421;-73
2022/09/25 00:38:47;;;;;;;8.07;1.50;;;16.80;95.10;;;;;;5032375;28;20463;-73
2022/09/25 00:41:15;;;;;;;6.97;1.60;;;16.70;95.10;;;;;;5032961;28;20026;-71
2022/09/25 00:43:56;;;;;;;6.22;1.58;;;16.60;95.00;;;;;;5033303;28;20040;-72
2022/09/25 00:46:21;;;;;;;5.65;1.45;;;16.60;95.20;;;;;;5033953;28;20051;-71
2022/09/25 00:48:56;;;;;;;5.93;1.38;;;16.60;95.20;;;;;;5035560;28;20376;-72
2022/09/25 00:51:28;;;;;;;8.48;1.30;;;16.60;95.20;;;;;;5035937;28;20108;-73
2022/09/25 00:53:57;;;;;;;7.65;1.40;;;16.60;95.10;;;;;;5035887;28;20528;-72
2022/09/25 00:56:23;;;;;;;6.38;1.38;;;16.60;95.10;;;;;;5036116;28;20061;-74
2022/09/25 00:58:50;;;;;;;5.78;1.38;;;16.60;95.10;;;;;;5036087;28;20045;-72
2022/09/25 01:01:16;;;;;;;5.18;1.38;;;16.60;95.10;;;;;;5036164;28;20022;-72
2022/09/25 01:03:45;;;;;;;6.20;1.20;;;16.50;95.20;;;;;;5035556;28;20040;-72
2022/09/25 01:06:13;;;;;;;7.68;1.98;;;16.60;95.20;;;;;;5035741;28;20475;-71
2022/09/25 01:08:39;;;;;;;7.22;1.60;;;16.50;95.20;;;;;;5035695;28;20021;-71
2022/09/25 01:11:04;;;;;;;9.70;1.80;;;16.50;95.20;;;;;;5035578;28;20107;-71
2022/09/25 01:13:30;;;;;;;7.07;1.33;;;16.50;95.20;;;;;;5035506;28;20430;-72
2022/09/25 01:16:15;;;;;;;6.05;1.73;;;16.50;95.30;;;;;;5035285;28;20033;-71
2022/09/25 01:19:02;;;;;;;5.75;1.45;;;16.50;95.30;;;;;;5035098;28;20033;-72
2022/09/25 01:21:48;;;;;;;7.63;1.77;;;16.40;95.40;;;;;;5035421;28;20470;-72
2022/09/25 01:24:19;;;;;;;4.30;1.33;;;16.40;95.40;;;;;;5035292;28;20463;-73
2022/09/25 01:27:02;;;;;;;6.83;1.50;;;16.50;95.20;;;;;;5035471;28;20486;-72
2022/09/25 01:29:52;;;;;;;7.70;1.67;;;16.40;95.40;;;;;;5035154;28;20103;-72
2022/09/25 01:32:30;;;;;;;4.15;1.65;;;16.40;95.50;;;;;;5034954;28;20030;-71
2022/09/25 01:35:14;;;;;;;3.65;1.40;;;16.40;95.30;;;;;;5034831;28;20160;-71
2022/09/25 01:37:51;;;;;;;5.15;1.92;;;16.30;95.30;;;;;;5034909;28;20037;-72
2022/09/25 01:40:32;;;;;;;8.95;1.83;;;16.30;95.40;;;;;;5035022;28;20143;-71
2022/09/25 01:43:08;;;;;;;6.13;1.65;;;16.40;95.40;;;;;;5034643;28;20095;-72
2022/09/25 01:45:47;;;;;;;7.68;1.70;;;16.40;95.30;;;;;;5034610;28;20034;-73
2022/09/25 01:48:17;;;;;;;4.85;1.35;;;16.30;95.20;;;;;;5034561;28;20108;-73
2022/09/25 01:50:49;;;;;;;8.35;1.80;;;16.30;95.30;;;;;;5034825;28;20053;-73
2022/09/25 01:53:22;;;;;;;5.75;1.70;;;16.30;95.30;;;;;;5034705;28;20029;-73
2022/09/25 01:55:56;;;;;;;6.95;1.95;;;16.30;95.30;;;;;;5034564;28;20053;-73
2022/09/25 01:58:34;;;;;;;6.97;2.22;;;16.20;95.30;;;;;;5033409;28;20026;-74
2022/09/25 02:01:06;;;;;;;9.55;2.35;;;16.30;95.20;;;;;;5033222;28;20033;-73
2022/09/25 02:03:38;;;;;;;6.80;1.83;;;16.30;95.00;;;;;;5034576;28;20025;-73
2022/09/25 02:06:06;;;;;;;5.28;1.45;;;16.30;95.00;;;;;;5034355;28;20621;-73
2022/09/25 02:08:40;;;;;;;9.68;1.92;;;16.30;95.20;;;;;;5034312;28;20032;-73
2022/09/25 02:11:07;;;;;;;5.18;1.58;;;16.20;95.30;;;;;;5034350;28;20022;-73
2022/09/25 02:13:48;;;;;;;8.00;2.10;;;16.20;95.10;;;;;;5033135;28;20025;-73
2022/09/25 02:16:19;;;;;;;7.68;1.77;;;16.20;95.20;;;;;;5032856;28;20117;-74
2022/09/25 02:21:44;;;;;;;6.40;1.63;;;16.10;95.30;;;;;;5034274;28;20045;-71
2022/09/25 02:24:26;;;;;;;6.40;1.95;;;16.10;95.20;;;;;;5034053;28;20037;-71
2022/09/25 02:26:52;;;;;;;8.45;2.05;;;16.20;95.10;;;;;;5033971;28;20022;-71
2022/09/25 02:29:18;;;;;;;5.07;1.70;;;16.20;95.00;;;;;;5034017;28;20029;-71
2022/09/25 02:31:56;;;;;;;4.57;1.90;;;16.10;95.00;;;;;;5033772;28;20548;-71
2022/09/25 02:34:22;;;;;;;6.93;1.60;;;16.10;95.20;;;;;;5034088;28;20036;-71
2022/09/25 02:36:48;;;;;;;10.45;1.83;;;16.10;95.30;;;;;;5033608;28;20030;-71
2022/09/25 02:39:19;;;;;;;5.68;1.63;;;16.10;95.20;;;;;;5033905;28;20582;-71
2022/09/25 02:42:03;;;;;;;5.28;1.58;;;16.10;95.30;;;;;;5033747;28;20029;-72
2022/09/25 02:44:38;;;;;;;7.80;1.55;;;15.90;95.50;;;;;;5024904;28;20053;-71
2022/09/25 02:47:19;;;;;;;5.28;2.65;;;15.90;95.60;;;;;;5030072;28;20080;-71
2022/09/25 02:50:01;;;;;;;3.47;1.60;;;16.00;95.60;;;;;;5032002;28;20033;-72
2022/09/25 02:52:40;;;;;;;12.57;2.38;;;15.90;95.50;;;;;;5031338;28;20021;-71
2022/09/25 02:55:14;;;;;;;5.25;1.90;;;15.90;95.50;;;;;;5033650;28;20079;-71
2022/09/25 02:58:04;;;;;;;5.93;1.90;;;15.90;95.70;;;;;;5033328;28;20068;-71
2022/09/25 03:00:34;;;;;;;7.82;1.77;;;15.90;95.70;;;;;;5033353;28;20375;-72
2022/09/25 03:03:02;;;;;;;5.20;2.03;;;15.90;95.40;;;;;;5033397;28;20104;-71
2022/09/25 03:05:29;;;;;;;7.28;2.33;;;15.90;95.40;;;;;;5032326;28;20507;-71
2022/09/25 03:10:44;;;;;;;5.85;2.15;;;15.80;95.30;;;;;;5033095;28;20059;-72
2022/09/25 03:13:25;;;;;;;4.72;2.03;;;15.80;95.50;;;;;;5033437;28;20091;-72
2022/09/25 03:15:57;;;;;;;6.30;1.98;;;15.70;95.50;;;;;;5032989;28;20034;-71
2022/09/25 03:18:24;;;;;;;;;;;15.90;95.20;;;;;;5033690;28;20025;-72
2022/09/25 03:20:50;;;;;;;6.10;1.90;;;15.90;95.30;;;;;;5033466;28;19912;-72
2022/09/25 03:23:16;;;;;;;6.45;2.20;;;15.90;95.00;;;;;;5032852;28;20030;-73
2022/09/25 03:25:42;;;;;;;6.68;1.70;;;15.90;95.00;;;;;;5033396;28;20017;-73
2022/09/25 03:28:11;;;;;;;6.93;2.10;;;15.80;95.00;;;;;;5032853;28;20029;-74
2022/09/25 03:30:39;;;;;;;6.57;2.17;;;15.80;95.10;;;;;;5033225;28;20021;-74
2022/09/25 03:33:10;;;;;;;7.22;2.35;;;15.80;94.90;;;;;;5033547;28;20055;-72
2022/09/25 03:35:39;;;;;;;5.28;1.98;;;15.90;94.90;;;;;;5033289;28;20104;-72
2022/09/25 03:38:07;;;;;;;6.53;2.30;;;15.80;94.90;;;;;;5032841;28;20099;-71
2022/09/25 03:40:33;;;;;;;7.03;2.13;;;15.80;94.90;;;;;;5033111;28;20025;-72
2022/09/25 03:42:58;;;;;;;6.00;1.95;;;15.70;95.10;;;;;;5032552;28;20025;-73
2022/09/25 03:45:24;;;;;;;6.50;2.22;;;15.70;95.10;;;;;;5033010;28;20025;-71
2022/09/25 03:47:49;;;;;;;6.10;2.58;;;15.80;95.00;;;;;;5032810;28;20104;-73
2022/09/25 03:50:15;;;;;;;8.07;2.00;;;15.80;94.90;;;;;;5031957;28;20087;-73
2022/09/25 03:52:40;;;;;;;4.93;2.00;;;15.70;95.10;;;;;;5031443;28;20033;-73
2022/09/25 03:55:06;;;;;;;6.53;1.90;;;15.60;95.30;;;;;;5032873;28;20025;-74
2022/09/25 03:57:32;;;;;;;4.07;2.13;;;15.50;95.40;;;;;;5032543;28;20036;-74
2022/09/25 04:00:00;;;;;;;5.90;2.58;;;15.50;95.50;;;;;;5032780;28;20034;-73
2022/09/25 04:02:27;;;;;;;8.52;2.10;;;15.50;95.70;;;;;;5032785;28;20417;-74
2022/09/25 04:04:53;;;;;;;7.28;2.05;;;15.50;95.90;;;;;;5032750;28;20124;-74
2022/09/25 04:07:20;;;;;;;8.20;2.40;;;15.50;95.90;;;;;;5032891;28;20028;-73
2022/09/25 04:09:46;;;;;;;3.72;2.05;;;15.60;95.70;;;;;;5032530;28;20030;-74
2022/09/25 04:12:12;;;;;;;6.63;2.45;;;15.60;95.50;;;;;;5032287;28;20018;-73
2022/09/25 04:14:37;;;;;;;5.40;1.60;;;15.70;95.40;;;;;;5032701;28;20095;-73
2022/09/25 04:17:03;;;;;;;6.00;2.35;;;15.60;95.50;;;;;;5033102;28;20107;-73
2022/09/25 04:19:29;;;;;;;6.20;2.13;;;15.70;95.40;;;;;;5032493;28;20111;-74
2022/09/25 04:21:54;;;;;;;7.03;2.15;;;15.60;95.50;;;;;;5034248;28;20160;-74
2022/09/25 04:27:04;;;;;;;9.82;2.55;;;15.60;95.60;;;;;;5036412;28;20056;-73
2022/09/25 04:29:31;;;;;;;6.90;2.35;;;15.50;95.70;;;;;;5036295;28;20433;-73
2022/09/25 04:34:40;;;;;;;6.80;2.30;;;15.60;95.50;;;;;;5036240;28;20432;-73
2022/09/25 04:37:06;;;;;;;5.13;2.28;;;15.60;95.50;;;;;;5036133;28;20034;-73
2022/09/25 04:39:31;;;;;;;5.05;2.40;;;15.50;95.60;;;;;;5034539;28;20022;-73
2022/09/25 04:41:57;;;;;;;4.68;2.83;;;15.50;95.70;;;;;;5034520;28;20025;-74
2022/09/25 04:44:22;;;;;;;7.28;2.60;;;15.40;95.70;;;;;;5036239;28;20497;-74
2022/09/25 04:46:48;;;;;;;7.68;2.75;;;15.40;95.80;;;;;;5035833;28;20463;-73
2022/09/25 04:49:13;;;;;;;6.20;2.20;;;15.40;95.80;;;;;;5036252;28;20033;-71
2022/09/25 04:51:39;;;;;;;6.72;2.55;;;15.40;95.80;;;;;;5036224;28;20053;-71
2022/09/25 04:54:06;;;;;;;5.25;2.13;;;15.30;95.80;;;;;;5035733;28;20133;-72
2022/09/25 04:56:31;;;;;;;6.18;3.03;;;15.30;95.80;;;;;;5035657;28;20097;-71
2022/09/25 04:58:57;;;;;;;4.10;2.45;;;15.40;95.70;;;;;;5035580;28;20037;-72
2022/09/25 05:01:22;;;;;;;5.47;2.58;;;15.30;95.60;;;;;;5030210;28;20089;-71
2022/09/25 05:03:52;;;;;;;6.53;2.67;;;15.20;95.80;;;;;;5035507;28;20025;-72
2022/09/25 05:06:18;;;;;;;5.88;2.60;;;15.20;95.90;;;;;;5034532;28;20395;-73
2022/09/25 05:08:48;;;;;;;8.55;3.35;;;15.20;95.80;;;;;;5033076;28;20024;-73
2022/09/25 05:11:14;;;;;;;6.65;2.53;;;15.20;95.70;;;;;;5035367;28;20528;-74
2022/09/25 05:13:40;;;;;;;7.20;2.90;;;15.30;95.60;;;;;;5034882;28;20037;-73
2022/09/25 05:16:06;;;;;;;8.77;3.13;;;15.30;95.60;;;;;;5033987;28;20051;-73
2022/09/25 05:18:32;;;;;;;4.90;2.58;;;15.20;95.60;;;;;;5033935;28;20387;-73
2022/09/25 05:21:03;;;;;;;8.13;3.13;;;15.20;95.40;;;;;;5031590;28;20556;-74
2022/09/25 05:23:28;;;;;;;7.25;2.65;;;15.10;95.50;;;;;;5040874;28;20020;-73
2022/09/25 05:25:56;;;;;;;7.45;3.03;;;15.10;95.40;;;;;;5054290;28;20355;-73
2022/09/25 05:28:23;;;;;;;5.40;2.78;;;15.10;95.60;;;;;;5055124;28;20488;-73
2022/09/25 05:30:49;;;;;;;8.07;3.45;;;15.00;95.60;;;;;;5054350;28;20023;-74
2022/09/25 05:33:14;;;;;;;5.90;3.70;;;15.10;95.50;;;;;;5054147;28;20041;-74
2022/09/25 05:35:40;;;;;;;4.82;2.80;;;15.10;95.50;;;;;;5054926;28;20381;-74
2022/09/25 05:38:07;;;;;;;9.20;3.50;;;15.10;95.40;;;;;;5054690;28;20492;-74
2022/09/25 05:40:33;;;;;;;5.93;3.05;;;15.20;95.30;;;;;;5054316;28;20024;-74
2022/09/25 05:42:59;;;;;;;6.40;3.13;;;15.10;95.30;;;;;;5054626;28;20131;-74
2022/09/25 05:45:24;;;;;;;4.65;3.00;;;15.00;95.40;;;;;;5054529;28;20079;-74
2022/09/25 05:48:05;;;;;;;5.47;3.00;;;14.80;95.70;;;;;;5054760;28;20027;-73
2022/09/25 05:50:31;;;;;;;5.93;3.03;;;14.80;95.80;;;;;;5054639;28;20029;-74
2022/09/25 05:53:02;;;;;;;3.28;2.95;;;14.90;95.80;;;;;;5054668;28;20070;-74
2022/09/25 05:55:28;;;;;;;6.93;3.35;;;14.80;95.80;;;;;;5054438;28;20036;-72
2022/09/25 05:58:03;;;;;;;4.43;3.05;;;14.80;95.80;;;;;;5054614;28;20288;-73
2022/09/25 06:00:31;;;;;;;4.55;2.80;;;14.90;95.80;;;;;;5054652;28;20028;-73
2022/09/25 06:02:57;;;;;;;7.18;2.40;;;14.90;95.60;;;;;;5055392;28;20029;-72
2022/09/25 06:05:23;;;;;;;4.32;2.45;;;14.90;95.60;;;;;;5054756;28;20351;-71
2022/09/25 06:07:53;;;;;;;5.63;2.60;;;14.70;95.80;;;;;;5024778;28;20148;-71
2022/09/25 06:10:18;;;;;;;4.78;2.88;;;14.90;95.70;;;;;;5032879;28;20087;-73
2022/09/25 06:12:44;;;;;;;6.32;3.00;;;14.90;95.90;;;;;;5034409;28;20033;-71
2022/09/25 06:15:09;;;;;;;5.00;2.80;;;14.80;95.80;;;;;;5032130;28;20081;-71
2022/09/25 06:17:35;;;;;;;7.28;2.80;;;14.80;96.10;;;;;;5020718;28;20116;-75
2022/09/25 06:20:01;;;;;;;5.07;2.63;;;14.80;95.90;;;;;;5020991;28;20060;-73
2022/09/25 06:22:26;;;;;;;3.95;1.80;;;15.00;96.00;;;;;;5018080;28;20032;-73
2022/09/25 06:24:52;;;;;;;6.03;2.20;;;15.30;95.70;;;;;;5018077;28;20029;-72
2022/09/25 06:27:17;;;;;;;6.75;3.63;;;15.50;95.40;;;;;;5028903;28;20425;-73
2022/09/25 06:29:43;;;;;;;4.47;2.03;;;15.70;95.20;;;;;;5015452;28;20530;-72
2022/09/25 06:32:08;;;;;;;4.78;2.20;;;15.70;95.10;;;;;;5017726;28;20065;-71
2022/09/25 06:34:34;;;;;;;5.93;2.28;;;15.80;95.10;;;;;;5027052;28;20126;-72
2022/09/25 06:37:00;;;;;;;6.25;2.30;;;15.80;95.10;;;;;;5015863;28;20037;-71
2022/09/25 06:39:25;;;;;;;5.15;2.45;;;15.80;95.10;;;;;;5013221;28;20033;-72
2022/09/25 06:41:52;;;;;;;3.42;1.92;;;15.90;95.10;;;;;;5015335;28;20021;-71
2022/09/25 06:44:19;;;;;;;4.25;2.47;;;15.90;95.10;;;;;;5029934;28;20490;-72
2022/09/25 06:46:53;;;;;;;5.25;2.95;;;15.90;95.20;;;;;;5013928;28;20549;-71
2022/09/25 06:49:19;;;;;;;3.97;2.72;;;15.90;95.30;;;;;;5024478;28;20028;-73
2022/09/25 06:51:44;;;;;;;5.88;2.10;;;16.00;95.40;;;;;;5024729;28;20117;-72
2022/09/25 06:54:10;;;;;;;5.10;2.70;;;15.90;95.40;;;;;;5024531;28;20018;-72
2022/09/25 06:56:35;;;;;;;4.55;2.65;;;16.00;95.60;;;;;;5016106;28;20026;-72
2022/09/25 06:59:01;;;;;;;6.70;2.28;;;15.90;95.60;;;;;;5020204;28;20025;-71
2022/09/25 07:01:26;;;;;;;4.30;1.80;;;15.90;95.60;;;;;;5012281;28;20053;-70
2022/09/25 07:03:52;;;;;;;5.07;1.50;;;15.90;95.50;;;;;;5022183;28;20655;-74
2022/09/25 07:06:22;;;;;;;5.45;1.67;;;15.90;95.50;;;;;;5015417;28;20053;-73
2022/09/25 07:08:49;;;;;;;6.07;2.67;;;15.90;95.70;;;;;;5020647;28;20478;-73
2022/09/25 07:11:17;;;;;;;8.73;2.60;;;15.90;96.00;;;;;;5016814;28;20232;-73
2022/09/25 07:13:43;;;;;;;8.65;2.50;;;15.90;96.10;;;;;;5016084;28;20025;-73
2022/09/25 07:16:13;;;;;;;8.20;2.95;;;16.00;96.60;;;;;;5017294;28;20026;-73
2022/09/25 07:18:38;;;;;;;5.88;2.95;;;16.00;97.00;;;;;;5024011;28;20075;-72
2022/09/25 07:21:15;;;;;;;6.50;3.30;;;16.00;97.30;;;;;;5017374;28;20029;-72
2022/09/25 07:23:41;;;;;;;4.80;2.47;;;16.00;97.40;;;;;;5016747;28;20083;-71
2022/09/25 07:26:13;;;;;;;10.18;3.78;;;16.00;97.40;;;;;;5024021;28;20018;-72
2022/09/25 07:28:40;;;;;;;7.00;3.72;;;16.20;97.60;;;;;;5024603;28;20025;-72
2022/09/25 07:31:27;;;;;;;9.27;3.63;;;16.40;97.60;;;;;;5030595;28;20100;-71
2022/09/25 07:33:53;;;;;;;8.02;3.20;;;16.50;97.60;;;;;;5013706;28;20042;-72
2022/09/25 07:36:19;;;;;;;7.82;3.30;;;16.60;97.40;;;;;;5011538;28;20124;-73
2022/09/25 07:38:52;;;;;;;5.90;2.80;;;16.60;97.50;;;;;;5025807;28;20117;-72
2022/09/25 07:41:19;;;;;;;6.97;2.45;;;16.60;97.20;;;;;;5021354;28;20029;-72
2022/09/25 07:43:45;;;;;;;6.57;2.63;;;16.70;97.00;;;;;;5019641;28;20032;-72
2022/09/25 07:46:11;;;;;;;5.07;2.53;;;16.60;97.10;;;;;;5023902;28;20034;-73
2022/09/25 07:48:37;;;;;;;6.13;2.13;;;16.70;96.80;;;;;;5015806;28;20026;-73
2022/09/25 07:51:05;;;;;;;6.03;2.50;;;16.70;96.90;;;;;;5021393;28;20022;-73
2022/09/25 07:53:31;;;;;;;6.13;2.75;;;16.70;97.00;;;;;;5013996;28;20109;-73
2022/09/25 07:56:00;;;;;;;6.43;3.03;;;16.80;97.30;;;;;;5023405;28;20032;-73
2022/09/25 07:58:27;;;;;;;6.00;2.65;;;16.80;97.40;;;;;;5035087;28;20048;-73
2022/09/25 08:00:57;;;;;;;8.55;2.15;;;16.80;97.50;;;;;;5031273;28;20018;-73
2022/09/25 08:03:23;;;;;;;6.18;2.70;;;16.90;97.30;;;;;;5021174;28;20025;-73
2022/09/25 08:06:00;;;;;;;7.22;2.60;;;17.00;97.20;;;;;;5020721;28;20033;-73
2022/09/25 08:08:26;;;;;;;6.43;2.75;;;17.00;97.20;;;;;;5021420;28;20022;-73
2022/09/25 08:10:54;;;;;;;8.20;2.33;;;17.00;97.20;;;;;;5029895;28;20040;-73
2022/09/25 08:13:21;;;;;;;8.43;2.40;;;17.10;96.90;;;;;;5025518;28;20036;-73
2022/09/25 08:15:47;;;;;;;5.70;1.80;;;17.10;96.90;;;;;;5032386;28;20033;-73
2022/09/25 08:18:13;;;;;;;10.48;2.00;;;17.10;96.70;;;;;;5019341;28;20029;-73
2022/09/25 08:20:39;;;;;;;7.18;2.00;;;17.00;96.70;;;;;;5014812;28;20025;-73
2022/09/25 08:23:06;;;;;;;8.10;2.13;;;17.10;96.70;;;;;;5024516;28;20030;-73
2022/09/25 08:25:31;;;;;;;6.15;2.28;;;17.20;96.60;;;;;;5022404;28;20107;-73
2022/09/25 08:27:57;;;;;;;6.60;2.33;;;17.20;96.50;;;;;;5029498;28;20053;-72
2022/09/25 08:30:23;;;;;;;7.60;2.42;;;17.10;96.90;;;;;;5021281;28;20034;-73
2022/09/25 08:32:51;;;;;;;5.45;1.80;;;17.10;96.60;;;;;;5017637;28;20022;-73
2022/09/25 08:35:17;;;;;;;7.13;1.65;;;17.10;96.40;;;;;;5032941;28;20030;-72
2022/09/25 08:37:44;;;;;;;6.78;2.00;;;17.10;96.20;;;;;;5017758;28;20030;-72
2022/09/25 08:40:25;;;;;;;6.13;2.95;;;17.10;96.40;;;;;;5015595;28;20117;-72
2022/09/25 08:42:53;;;;;;;8.40;2.35;;;17.10;96.40;;;;;;5031210;28;20025;-72
2022/09/25 08:51:10;;;;;;;8.55;1.88;;;17.30;95.80;;;;;;5017813;28;21016;-71
2022/09/25 08:53:38;;;;;;;7.50;1.58;;;17.30;95.70;;;;;;5021042;28;20459;-71
2022/09/25 08:56:13;;;;;;;6.88;1.23;;;17.20;95.20;;;;;;5020803;28;20403;-71
2022/09/25 08:58:43;;;;;;;10.82;1.83;;;17.30;94.80;;;;;;5015020;28;20033;-72
2022/09/25 09:01:15;;;;;;;8.60;1.85;;;17.10;95.40;;;;;;5015115;28;20109;-72
2022/09/25 09:04:18;;;;;;;7.20;1.13;;;17.10;95.40;;;;;;5015604;28;20109;-72
2022/09/25 09:06:47;;;;;;;4.93;0.65;;;17.20;95.40;;;;;;5025694;28;20546;-72
2022/09/25 09:09:21;;;;;;;5.57;0.80;;;17.20;94.50;;;;;;5034708;28;20057;-73
2022/09/25 09:12:17;;;;;;;5.03;0.60;;;17.20;94.20;;;;;;5038719;28;20099;-73
2022/09/25 09:14:47;;;;;;;2.25;0.50;;;17.20;93.80;;;;;;5016826;28;20032;-72
2022/09/25 09:17:20;;;;;;;4.97;1.10;;;17.30;93.20;;;;;;5029795;28;20095;-73
2022/09/25 09:19:58;;;;;;;3.70;1.25;;;17.30;92.80;;;;;;5031759;28;20030;-73
2022/09/25 09:22:31;;;;;;;3.42;0.70;;;17.20;94.00;;;;;;5019115;28;20127;-72
2022/09/25 09:25:15;;;;;;;5.57;1.15;;;17.20;94.20;;;;;;5025822;28;20474;-73
2022/09/25 09:27:53;;;;;;;4.53;0.90;;;17.20;94.50;;;;;;5020493;28;20032;-73
2022/09/25 09:30:40;;;;;;;11.98;1.02;;;17.10;93.80;;;;;;5016077;28;20040;-72
2022/09/25 09:33:43;;;;;;;2.90;0.98;;;17.20;94.50;;;;;;5022857;28;20037;-71
2022/09/25 09:36:21;;;;;;;;;;;17.30;94.00;;;;;;5019909;28;20072;-73
2022/09/25 09:39:15;;;;;;;4.97;1.10;;;17.30;95.00;;;;;;5020833;28;19913;-72
2022/09/25 09:42:03;;;;;;;6.35;1.08;;;17.30;94.80;;;;;;5020901;28;20025;-72
2022/09/25 09:44:40;;;;;;;2.20;0.73;;;17.30;94.00;;;;;;5019985;28;20033;-72
2022/09/25 09:47:48;;;;;;;3.72;0.80;;;17.40;93.00;;;;;;5013341;28;20109;-72
2022/09/25 09:50:43;;;;;;;6.90;0.90;;;17.40;93.00;;;;;;5017044;28;20087;-72
2022/09/25 09:53:38;;;;;;;6.28;1.00;;;17.40;92.70;;;;;;5018350;28;20173;-73
2022/09/25 09:56:22;;;;;;;4.85;0.80;;;17.30;93.80;;;;;;5031438;28;20026;-72
2022/09/25 09:58:54;;;;;;;4.82;0.57;;;17.40;94.10;;;;;;5016527;28;20040;-72
2022/09/25 10:01:29;;;;;;;3.80;0.90;;;17.40;93.80;;;;;;5019286;28;20030;-73
2022/09/25 10:04:25;;;;;;;5.22;0.50;;;17.50;93.60;;;;;;5020545;28;20637;-72
2022/09/25 10:07:00;;;;;;;2.95;0.40;;;17.50;92.30;;;;;;5008995;28;20156;-72
2022/09/25 10:09:26;;;;;;;4.15;0.50;;;17.50;92.00;;;;;;5006623;28;20506;-72
2022/09/25 10:12:13;;;;;;;4.40;0.80;;;17.50;91.20;;;;;;5015560;28;20605;-73
2022/09/25 10:14:43;;;;;;;3.83;0.80;;;17.50;92.70;;;;;;5017330;28;20026;-72
2022/09/25 10:17:10;;;;;;;6.03;0.70;;;17.50;93.00;;;;;;5019056;28;20495;-72
2022/09/25 10:19:57;;;;;;;4.15;1.05;;;17.50;92.20;;;;;;5028181;28;20352;-72
2022/09/25 10:22:36;;;;;;;2.05;0.80;;;17.50;93.30;;;;;;5015944;28;20414;-73
2022/09/25 10:25:04;;;;;;;3.15;0.80;;;17.60;92.90;;;;;;5024117;28;20041;-73
2022/09/25 10:27:35;;;;;;;4.22;0.60;;;17.60;92.60;;;;;;5014555;28;20479;-73
2022/09/25 10:30:10;;;;;;;3.35;0.55;;;17.60;91.60;;;;;;5025281;28;20013;-73
2022/09/25 10:32:53;;;;;;;4.90;0.47;;;17.60;91.00;;;;;;5017037;28;20533;-73
2022/09/25 10:35:23;;;;;;;3.58;0.85;;;17.70;90.30;;;;;;5020472;28;20029;-74
2022/09/25 10:37:59;;;;;;;6.57;1.58;;;17.70;91.10;;;;;;5020066;28;20037;-73
2022/09/25 10:40:33;;;;;;;7.47;1.70;;;17.70;92.00;;;;;;5017729;28;20106;-72
2022/09/25 10:43:05;;;;;;;4.57;1.73;;;17.70;92.60;;;;;;5024203;28;20025;-73
2022/09/25 10:45:34;;;;;;;7.63;1.85;;;17.70;93.00;;;;;;5019645;28;20057;-72
2022/09/25 10:51:03;;;;;;;5.40;1.20;;;17.80;92.60;;;;;;5018350;28;20577;-73
2022/09/25 10:53:29;;;;;;;3.60;0.75;;;17.80;93.00;;;;;;5029318;28;20025;-73
2022/09/25 10:56:08;;;;;;;5.47;0.98;;;17.80;92.20;;;;;;5033395;28;20733;-73
2022/09/25 10:58:42;;;;;;;2.65;0.70;;;17.90;92.40;;;;;;5033636;28;20041;-72
2022/09/25 11:01:12;;;;;;;4.50;1.10;;;17.90;91.80;;;;;;5034095;28;20092;-72
2022/09/25 11:03:55;;;;;;;3.70;0.80;;;17.90;92.00;;;;;;5026875;28;20037;-73
2022/09/25 11:06:24;;;;;;;3.88;1.13;;;17.90;91.50;;;;;;5026827;28;20036;-73
2022/09/25 11:09:04;;;;;;;3.58;1.00;;;18.00;92.40;;;;;;5013187;28;20025;-72
2022/09/25 11:11:30;;;;;;;3.10;0.50;;;18.00;92.80;;;;;;5017974;28;20056;-72
2022/09/25 11:13:59;;;;;;;4.22;0.82;;;18.00;92.20;;;;;;5019374;28;20572;-72
2022/09/25 11:16:49;;;;;;;3.75;0.90;;;17.90;91.90;;;;;;5023525;28;20121;-72
2022/09/25 11:19:37;;;;;;;6.78;1.02;;;18.00;92.60;;;;;;5015517;28;20041;-72
2022/09/25 11:22:18;;;;;;;4.43;0.90;;;17.90;93.30;;;;;;5015872;28;20037;-72
2022/09/25 11:25:10;;;;;;;4.68;1.02;;;18.00;92.90;;;;;;5017332;28;20939;-72
2022/09/25 11:27:44;;;;;;;4.07;1.00;;;18.00;93.60;;;;;;5025540;28;20032;-72
2022/09/25 11:30:15;;;;;;;6.05;0.88;;;18.00;93.60;;;;;;5018183;28;20030;-74
2022/09/25 11:33:05;;;;;;;7.35;1.38;;;18.00;93.40;;;;;;5033839;28;20029;-74
2022/09/25 11:35:46;;;;;;;2.50;0.30;;;18.00;92.70;;;;;;5011392;28;20029;-74
2022/09/25 11:41:32;;;;;;;3.40;0.30;;;18.10;90.90;;;;;;5031048;28;20483;-73
2022/09/25 11:44:12;;;;;;;1.90;0.20;;;18.00;88.10;;;;;;5018090;28;20452;-73
2022/09/25 11:46:56;;;;;;;3.85;0.30;;;18.00;87.40;;;;;;5019100;28;20038;-72
2022/09/25 11:49:25;;;;;;;3.30;0.40;;;17.90;88.20;;;;;;5015690;28;20533;-73
2022/09/25 11:52:10;;;;;;;2.80;0.40;;;18.00;89.20;;;;;;5023416;28;20032;-72
2022/09/25 11:54:47;;;;;;;2.15;0.10;;;18.10;89.40;;;;;;5032333;28;20030;-72
2022/09/25 11:57:32;;;;;;;0.73;0.15;;;18.00;89.90;;;;;;5026537;28;20073;-71
2022/09/25 12:00:04;;;;;;;1.08;0.35;;;18.10;89.60;;;;;;5028695;28;20021;-72
2022/09/25 12:03:06;;;;;;;1.33;0.27;;;18.10;89.80;;;;;;5014520;28;20061;-73
2022/09/25 12:05:53;;;;;;;1.58;0.22;;;18.20;90.10;;;;;;5018101;28;20358;-72
2022/09/25 12:08:53;;;;;;;1.77;0.30;;;18.20;91.40;;;;;;5025569;28;20063;-72
2022/09/25 12:11:30;;;;;;;2.25;0.10;;;18.30;90.40;;;;;;5014136;28;20029;-73
2022/09/25 12:14:08;;;;;;;1.98;0.20;;;18.30;88.50;;;;;;5017472;28;20037;-72
2022/09/25 12:17:04;;;;;;;0.75;0.10;;;18.20;90.00;;;;;;5024266;28;20471;-72
2022/09/25 12:19:35;;;;;;;0.63;0.10;;;18.30;87.60;;;;;;5037683;28;20117;-73
2022/09/25 12:22:19;;;;;;;1.25;0.20;;;18.30;87.10;;;;;;5018691;28;20072;-70
2022/09/25 12:25:00;;;;;;;3.67;0.43;;;18.30;87.70;;;;;;5008391;28;20030;-72
2022/09/25 12:27:40;;;;;;;2.22;0.10;;;18.30;88.10;;;;;;5015033;28;20041;-72
2022/09/25 12:30:22;;;;;;;2.90;0.13;;;18.40;86.40;;;;;;5013728;28;20033;-73
2022/09/25 12:33:21;;;;;;;5.13;0.22;;;18.40;88.00;;;;;;5016231;28;20026;-73
2022/09/25 12:36:07;;;;;;;2.92;0.20;;;18.40;90.40;;;;;;5016864;28;20522;-72
2022/09/25 12:38:43;;;;;;;2.67;0.35;;;18.40;90.30;;;;;;5015907;28;20442;-73
2022/09/25 12:41:44;;;;;;;2.08;0.20;;;18.40;89.50;;;;;;5020814;28;20053;-73
2022/09/25 12:44:43;;;;;;;2.38;0.20;;;18.40;88.00;;;;;;5007519;28;20183;-73
2022/09/25 12:47:32;;;;;;;1.50;0.20;;;18.50;88.50;;;;;;5016471;28;20026;-72
2022/09/25 12:50:17;;;;;;;1.85;0.10;;;18.50;87.50;;;;;;5027072;28;20392;-72
2022/09/25 12:52:56;;;;;;;1.92;0.20;;;18.50;88.60;;;;;;5035388;28;20033;-72
2022/09/25 12:55:31;;;;;;;3.10;0.30;;;18.50;87.80;;;;;;5022040;28;20025;-72
2022/09/25 12:58:20;;;;;;;2.25;0.15;;;18.50;87.10;;;;;;5032966;28;20454;-72
2022/09/25 13:00:51;;;;;;;4.05;0.40;;;18.60;86.90;;;;;;5021654;28;20674;-73
2022/09/25 13:03:38;;;;;;;1.00;0.15;;;18.60;88.10;;;;;;5028750;28;20036;-73
2022/09/25 13:06:30;;;;;;;2.35;0.10;;;18.60;87.90;;;;;;5015855;28;20053;-72
2022/09/25 13:09:06;;;;;;;2.07;0.20;;;18.60;85.40;;;;;;5016727;28;20030;-72
2022/09/25 13:11:49;;;;;;;2.28;0.32;;;18.60;83.00;;;;;;5014635;28;20265;-72
2022/09/25 13:14:45;;;;;;;1.75;0.10;;;18.70;84.70;;;;;;5014312;28;20037;-72
2022/09/25 13:17:12;;;;;;;1.85;0.20;;;18.70;85.20;;;;;;5023120;28;20045;-72
2022/09/25 13:19:38;;;;;;;1.70;0.10;;;18.70;87.30;;;;;;5037087;28;20445;-72
2022/09/25 13:22:20;;;;;;;1.92;0.10;;;18.70;88.20;;;;;;5031739;28;20018;-72
2022/09/25 13:24:50;;;;;;;1.90;0.30;;;18.70;86.50;;;;;;5049560;28;20024;-72
2022/09/25 13:27:21;;;;;;;1.77;0.20;;;18.80;85.90;;;;;;5040075;28;20398;-73
2022/09/25 13:29:56;;;;;;;1.50;0.10;;;18.80;84.50;;;;;;5045165;28;20026;-72
2022/09/25 13:32:29;;;;;;;2.30;0.30;;;18.80;86.30;;;;;;5034803;28;20033;-72
2022/09/25 13:34:59;;;;;;;3.42;0.40;;;18.60;83.50;;;;;;5033831;28;20374;-72
2022/09/25 13:37:30;;;;;;;0.88;0.20;;;18.70;84.30;;;;;;5033558;28;20030;-72
2022/09/25 13:42:47;;;;;;;2.95;0.20;;;18.70;86.00;;;;;;5017980;28;20521;-72
2022/09/25 13:45:26;;;;;;;1.65;0.03;;;18.80;84.00;;;;;;5018852;28;20033;-72